Time;durP1;ratioP1;P1;durP2;ratioP2;P2;SDS_P1;SDS_P2;PMS_P1;PMS_P2;Temp;Humidity;BMP_temperature;BMP_pressure;BME280_temperature;BME280_humidity;BME280_pressure;Samples;Min_cycle;Max_cycle;Signal;HPM_P1;HPM_P2
2022/08/04 00:01:56;;;;;;;3.75;1.50;;;;;;;;;;5069041;28;20021;-69
2022/08/04 00:04:22;;;;;;;;;;;;;;;;;;5062751;28;20029;-70
2022/08/04 00:07:09;;;;;;;4.30;1.43;;;;;;;;;;5056095;28;19931;-70
2022/08/04 00:09:44;;;;;;;4.87;1.13;;;;;;;;;;5063730;28;20032;-70
2022/08/04 00:12:11;;;;;;;8.73;1.17;;;;;;;;;;5065208;28;20025;-73
2022/08/04 00:14:40;;;;;;;4.47;1.57;;;;;;;;;;5071616;28;20028;-72
2022/08/04 00:17:08;;;;;;;3.20;1.00;;;;;;;;;;5073657;28;20028;-71
2022/08/04 00:19:55;;;;;;;11.93;1.30;;;;;;;;;;5073502;28;20067;-70
2022/08/04 00:22:25;;;;;;;3.60;1.27;;;;;;;;;;5072777;28;20027;-69
2022/08/04 00:24:52;;;;;;;4.90;1.40;;;;;;;;;;5065363;28;20021;-70
2022/08/04 00:27:19;;;;;;;7.80;1.27;;;;;;;;;;5048176;28;20053;-72
2022/08/04 00:29:46;;;;;;;9.93;1.40;;;;;;;;;;5048056;28;20029;-72
2022/08/04 00:32:13;;;;;;;2.70;1.43;;;;;;;;;;5050410;28;20078;-70
2022/08/04 00:34:40;;;;;;;3.00;1.20;;;;;;;;;;5052726;28;20017;-69
2022/08/04 00:37:07;;;;;;;5.47;1.63;;;;;;;;;;5052891;28;20032;-69
2022/08/04 00:39:34;;;;;;;1.10;0.73;;;;;;;;;;5054273;28;20106;-70
2022/08/04 00:42:19;;;;;;;3.27;1.40;;;;;;;;;;5058804;28;20034;-68
2022/08/04 00:44:49;;;;;;;9.77;1.57;;;;;;;;;;5072436;28;20425;-68
2022/08/04 00:47:39;;;;;;;9.53;1.27;;;;;;;;;;5067877;28;20021;-68
2022/08/04 00:50:06;;;;;;;4.20;1.53;;;;;;;;;;5067688;28;20032;-68
2022/08/04 00:52:41;;;;;;;3.87;1.60;;;;;;;;;;5067549;28;20414;-68
2022/08/04 00:55:17;;;;;;;2.93;1.10;;;;;;;;;;5068547;28;20468;-68
2022/08/04 00:57:52;;;;;;;4.90;1.30;;;;;;;;;;5072617;28;20377;-68
2022/08/04 01:00:20;;;;;;;2.83;0.83;;;;;;;;;;5070930;28;20029;-67
2022/08/04 01:02:53;;;;;;;4.33;1.17;;;;;;;;;;5072700;28;20043;-68
2022/08/04 01:05:22;;;;;;;4.50;1.30;;;;;;;;;;5070706;28;20040;-68
2022/08/04 01:07:55;;;;;;;5.20;1.27;;;;;;;;;;5051482;28;20040;-68
2022/08/04 01:10:37;;;;;;;3.20;1.03;;;;;;;;;;5062275;28;20377;-71
2022/08/04 01:13:07;;;;;;;18.00;2.03;;;;;;;;;;5064682;28;20029;-69
2022/08/04 01:15:45;;;;;;;3.03;1.53;;;;;;;;;;5067845;28;20410;-70
2022/08/04 01:18:21;;;;;;;21.70;1.90;;;;;;;;;;5069840;28;20051;-69
2022/08/04 01:20:48;;;;;;;2.27;1.00;;;;;;;;;;5071994;28;20124;-71
2022/08/04 01:23:24;;;;;;;6.17;1.90;;;;;;;;;;5065254;28;20120;-71
2022/08/04 01:26:02;;;;;;;6.73;1.43;;;;;;;;;;5061573;28;20558;-71
2022/08/04 01:28:36;;;;;;;4.23;1.40;;;;;;;;;;5037917;28;20394;-70
2022/08/04 01:31:09;;;;;;;2.23;1.33;;;;;;;;;;5061602;28;20433;-71
2022/08/04 01:33:37;;;;;;;2.40;1.10;;;;;;;;;;5057874;28;20526;-69
2022/08/04 01:36:05;;;;;;;4.07;1.27;;;;;;;;;;5067019;28;20107;-70
2022/08/04 01:38:36;;;;;;;9.57;1.77;;;;;;;;;;5050136;28;20029;-68
2022/08/04 01:41:04;;;;;;;7.50;1.13;;;;;;;;;;5055264;28;20032;-68
2022/08/04 01:43:33;;;;;;;5.80;1.37;;;;;;;;;;5057250;28;20072;-68
2022/08/04 01:46:04;;;;;;;2.50;1.10;;;;;;;;;;5072383;28;20060;-68
2022/08/04 01:48:31;;;;;;;1.77;0.93;;;;;;;;;;5078611;28;20550;-68
2022/08/04 01:50:59;;;;;;;1.97;1.03;;;;;;;;;;5078785;28;20020;-68
2022/08/04 01:53:31;;;;;;;1.20;0.77;;;;;;;;;;5072890;28;20086;-68
2022/08/04 01:55:58;;;;;;;5.97;2.20;;;;;;;;;;5071885;28;20120;-69
2022/08/04 01:58:25;;;;;;;10.00;1.37;;;;;;;;;;5073663;28;20032;-68
2022/08/04 02:01:10;;;;;;;1.63;0.77;;;;;;;;;;5073244;28;20199;-68
2022/08/04 02:03:39;;;;;;;5.43;1.03;;;;;;;;;;5077666;28;20031;-68
2022/08/04 02:06:24;;;;;;;7.73;1.23;;;;;;;;;;5061296;28;20025;-68
2022/08/04 02:08:56;;;;;;;2.10;1.27;;;;;;;;;;5058279;28;20379;-68
2022/08/04 02:11:23;;;;;;;3.03;1.20;;;;;;;;;;5058615;28;20056;-68
2022/08/04 02:14:05;;;;;;;2.10;0.90;;;;;;;;;;5058538;28;20025;-68
2022/08/04 02:16:39;;;;;;;4.23;1.40;;;;;;;;;;5053277;28;21012;-69
2022/08/04 02:19:18;;;;;;;6.20;1.70;;;;;;;;;;5041230;28;20025;-68
2022/08/04 02:21:45;;;;;;;3.77;1.00;;;;;;;;;;5062831;28;20037;-68
2022/08/04 02:24:14;;;;;;;1.63;0.93;;;;;;;;;;5053617;28;20086;-68
2022/08/04 02:26:42;;;;;;;2.83;1.23;;;;;;;;;;5075933;28;20027;-68
2022/08/04 02:29:08;;;;;;;5.73;1.27;;;;;;;;;;5078260;28;20025;-68
2022/08/04 02:31:59;;;;;;;1.90;1.17;;;;;;;;;;5078557;28;20025;-68
2022/08/04 02:34:30;;;;;;;2.60;1.40;;;;;;;;;;5078434;28;20028;-68
2022/08/04 02:36:59;;;;;;;1.77;1.17;;;;;;;;;;5076791;28;20016;-68
2022/08/04 02:39:28;;;;;;;2.70;1.20;;;;;;;;;;5072971;28;20028;-68
2022/08/04 02:41:55;;;;;;;5.43;1.27;;;;;;;;;;5072203;28;20480;-68
2022/08/04 02:44:23;;;;;;;1.90;0.67;;;;;;;;;;5053023;28;20033;-69
2022/08/04 02:46:53;;;;;;;1.67;0.97;;;;;;;;;;5054997;28;20037;-68
2022/08/04 02:49:20;;;;;;;2.87;1.07;;;;;;;;;;5058146;28;20116;-68
2022/08/04 02:51:50;;;;;;;8.60;1.07;;;;;;;;;;5058188;28;20028;-68
2022/08/04 02:54:17;;;;;;;2.10;1.20;;;;;;;;;;5058281;28;20051;-68
2022/08/04 02:56:45;;;;;;;1.30;0.77;;;;;;;;;;5057998;28;20077;-68
2022/08/04 02:59:12;;;;;;;1.97;1.00;;;;;;;;;;5053259;28;20033;-68
2022/08/04 03:01:39;;;;;;;4.77;2.27;;;;;;;;;;5050901;28;20087;-68
2022/08/04 03:04:21;;;;;;;5.57;2.17;;;;;;;;;;5049682;28;20025;-68
2022/08/04 03:06:54;;;;;;;20.00;3.77;;;;;;;;;;5049710;28;20048;-68
2022/08/04 03:09:39;;;;;;;3.10;1.90;;;;;;;;;;5050900;28;20075;-68
2022/08/04 03:12:13;;;;;;;11.85;1.75;;;;;;;;;;5036938;28;20036;-68
2022/08/04 03:14:58;;;;;;;7.88;1.58;;;;;;;;;;5057516;28;20391;-68
2022/08/04 03:17:37;;;;;;;6.03;3.38;;;;;;;;;;5055330;28;20017;-68
2022/08/04 03:20:04;;;;;;;8.83;2.50;;;;;;;;;;5065024;28;20020;-68
2022/08/04 03:22:51;;;;;;;6.70;1.77;;;;;;;;;;5070991;28;20081;-68
2022/08/04 03:25:36;;;;;;;4.60;1.57;;;;;;;;;;5063261;28;20162;-68
2022/08/04 03:28:11;;;;;;;4.35;1.65;;;;;;;;;;5064865;28;20036;-68
2022/08/04 03:30:41;;;;;;;1.50;1.00;;;;;;;;;;5069201;28;20479;-68
2022/08/04 03:33:09;;;;;;;2.03;1.43;;;;;;;;;;5057724;28;20037;-68
2022/08/04 03:35:42;;;;;;;3.57;1.53;;;;;;;;;;5062765;28;20490;-68
2022/08/04 03:38:21;;;;;;;9.47;2.97;;;;;;;;;;5072609;28;20020;-70
2022/08/04 03:40:50;;;;;;;6.20;2.37;;;;;;;;;;5071414;28;20486;-68
2022/08/04 03:43:35;;;;;;;3.43;2.03;;;;;;;;;;5066685;28;20021;-68
2022/08/04 03:46:20;;;;;;;2.53;1.40;;;;;;;;;;5048784;28;20033;-68
2022/08/04 03:48:49;;;;;;;3.87;2.20;;;;;;;;;;5049035;28;20100;-68
2022/08/04 03:54:32;;;;;;;4.23;1.53;;;;;;;;;;5050811;28;20040;-68
2022/08/04 03:56:58;;;;;;;2.58;1.55;;;;;;;;;;5053958;28;20087;-69
2022/08/04 03:59:25;;;;;;;8.23;2.03;;;;;;;;;;5053976;28;20029;-68
2022/08/04 04:02:18;;;;;;;4.03;1.53;;;;;;;;;;5068184;28;20032;-68
2022/08/04 04:04:57;;;;;;;11.83;1.97;;;;;;;;;;5073551;28;20487;-68
2022/08/04 04:07:27;;;;;;;2.87;1.50;;;;;;;;;;5069705;28;20134;-68
2022/08/04 04:10:02;;;;;;;3.90;1.70;;;;;;;;;;5067520;28;20099;-68
2022/08/04 04:12:38;;;;;;;1.10;0.70;;;;;;;;;;5068556;28;20605;-68
2022/08/04 04:15:23;;;;;;;2.00;1.10;;;;;;;;;;5068395;28;20027;-68
2022/08/04 04:17:56;;;;;;;5.18;1.83;;;;;;;;;;5073122;28;20192;-68
2022/08/04 04:20:22;;;;;;;2.97;1.57;;;;;;;;;;5072906;28;20032;-68
2022/08/04 04:23:07;;;;;;;2.03;1.10;;;;;;;;;;5073256;28;20044;-68
2022/08/04 04:25:43;;;;;;;2.78;1.17;;;;;;;;;;5064042;28;20064;-64
2022/08/04 04:28:30;;;;;;;0.93;0.57;;;;;;;;;;5052601;28;20067;-64
2022/08/04 04:30:59;;;;;;;2.67;1.30;;;;;;;;;;5048231;28;20104;-68
2022/08/04 04:33:26;;;;;;;10.03;1.13;;;;;;;;;;5048175;28;20017;-68
2022/08/04 04:35:59;;;;;;;3.27;1.40;;;;;;;;;;5048035;28;20472;-68
2022/08/04 04:38:41;;;;;;;3.97;1.60;;;;;;;;;;5049004;28;20088;-68
2022/08/04 04:41:26;;;;;;;2.07;1.33;;;;;;;;;;5053537;28;20368;-68
2022/08/04 04:44:19;;;;;;;4.82;1.27;;;;;;;;;;5035222;28;20033;-68
2022/08/04 04:47:03;;;;;;;4.00;1.33;;;;;;;;;;5060456;28;20024;-68
2022/08/04 04:49:59;;;;;;;4.25;1.40;;;;;;;;;;5053161;28;20353;-68
2022/08/04 04:52:28;;;;;;;0.75;0.63;;;;;;;;;;5047930;28;20031;-68
2022/08/04 04:54:55;;;;;;;1.47;0.80;;;;;;;;;;5047481;28;20033;-68
2022/08/04 04:57:24;;;;;;;2.70;1.03;;;;;;;;;;5047648;28;20021;-70
2022/08/04 04:59:59;;;;;;;2.90;0.80;;;;;;;;;;5047348;28;20099;-71
2022/08/04 05:02:26;;;;;;;2.60;1.03;;;;;;;;;;5052038;28;20506;-72
2022/08/04 05:05:19;;;;;;;2.63;1.40;;;;;;;;;;5052490;28;20033;-72
2022/08/04 05:07:57;;;;;;;2.03;1.10;;;;;;;;;;5052838;28;20463;-75
2022/08/04 05:10:39;;;;;;;1.50;0.80;;;;;;;;;;5052403;28;20025;-74
2022/08/04 05:13:14;;;;;;;3.00;0.83;;;;;;;;;;5051017;28;20090;-69
2022/08/04 05:15:43;;;;;;;2.40;0.87;;;;;;;;;;5048404;28;20068;-72
2022/08/04 05:18:14;;;;;;;0.97;0.67;;;;;;;;;;5067390;28;20115;-69
2022/08/04 05:20:43;;;;;;;6.83;1.57;;;;;;;;;;5067122;28;20490;-70
2022/08/04 05:23:18;;;;;;;3.00;0.93;;;;;;;;;;5067947;28;20504;-69
2022/08/04 05:25:49;;;;;;;1.50;0.83;;;;;;;;;;5062412;28;20448;-72
2022/08/04 05:28:18;;;;;;;4.47;1.53;;;;;;;;;;5052464;28;20028;-72
2022/08/04 05:30:51;;;;;;;1.57;1.07;;;;;;;;;;5052188;28;20044;-71
2022/08/04 05:33:23;;;;;;;1.03;0.73;;;;;;;;;;5052478;28;20029;-71
2022/08/04 05:35:52;;;;;;;1.30;0.70;;;;;;;;;;5049588;28;20044;-72
2022/08/04 05:38:22;;;;;;;2.90;0.97;;;;;;;;;;5046981;28;20025;-73
2022/08/04 05:40:49;;;;;;;0.73;0.43;;;;;;;;;;5046985;28;20029;-71
2022/08/04 05:43:16;;;;;;;1.40;1.03;;;;;;;;;;5045337;28;20021;-71
2022/08/04 05:45:47;;;;;;;1.37;0.83;;;;;;;;;;5057739;28;20036;-71
2022/08/04 05:48:14;;;;;;;4.07;2.63;;;;;;;;;;5072003;28;20028;-71
2022/08/04 05:50:41;;;;;;;5.33;1.77;;;;;;;;;;5071755;28;20078;-72
2022/08/04 05:53:08;;;;;;;4.10;1.80;;;;;;;;;;5072190;28;20032;-71
2022/08/04 05:55:35;;;;;;;2.00;1.00;;;;;;;;;;5072222;28;20103;-71
2022/08/04 05:58:02;;;;;;;2.50;1.13;;;;;;;;;;5069774;28;20490;-71
2022/08/04 06:00:29;;;;;;;3.17;1.03;;;;;;;;;;5066769;28;20028;-71
2022/08/04 06:02:56;;;;;;;6.40;2.27;;;;;;;;;;5066616;28;20017;-71
2022/08/04 06:05:23;;;;;;;0.60;0.60;;;;;;;;;;5066521;28;20037;-71
2022/08/04 06:07:50;;;;;;;3.63;1.30;;;;;;;;;;5067428;28;20021;-72
2022/08/04 06:10:17;;;;;;;6.00;1.93;;;;;;;;;;5069982;28;20042;-72
2022/08/04 06:12:46;;;;;;;2.90;1.73;;;;;;;;;;5071954;28;20017;-71
2022/08/04 06:15:17;;;;;;;4.03;1.30;;;;;;;;;;5071940;28;20017;-71
2022/08/04 06:17:49;;;;;;;3.47;1.70;;;;;;;;;;5071968;28;20379;-71
2022/08/04 06:20:17;;;;;;;2.73;1.47;;;;;;;;;;5069885;28;20099;-71
2022/08/04 06:22:45;;;;;;;5.87;2.00;;;;;;;;;;5066183;28;20479;-72
2022/08/04 06:25:15;;;;;;;1.97;1.23;;;;;;;;;;5066400;28;20850;-71
2022/08/04 06:27:43;;;;;;;3.63;1.97;;;;;;;;;;5066495;28;20348;-71
2022/08/04 06:30:13;;;;;;;8.63;1.70;;;;;;;;;;5067746;28;20090;-71
2022/08/04 06:32:47;;;;;;;1.97;1.40;;;;;;;;;;5071764;28;20036;-71
2022/08/04 06:35:16;;;;;;;1.88;1.13;;;;;;;;;;5075016;28;20104;-71
2022/08/04 06:37:43;;;;;;;2.30;1.53;;;;;;;;;;5068557;28;20070;-71
2022/08/04 06:40:12;;;;;;;2.07;1.33;;;;;;;;;;5055218;28;20079;-71
2022/08/04 06:42:39;;;;;;;5.80;1.67;;;;;;;;;;5064590;28;20032;-71
2022/08/04 06:45:06;;;;;;;1.17;0.90;;;;;;;;;;5069803;28;20114;-71
2022/08/04 06:47:35;;;;;;;2.93;0.97;;;;;;;;;;5069953;28;20039;-71
2022/08/04 06:50:01;;;;;;;1.23;1.00;;;;;;;;;;5069489;28;20028;-72
2022/08/04 06:52:28;;;;;;;1.23;0.97;;;;;;;;;;5070910;28;20107;-71
2022/08/04 06:54:55;;;;;;;2.80;1.37;;;;;;;;;;5075073;28;20342;-71
2022/08/04 06:57:24;;;;;;;1.37;0.90;;;;;;;;;;5074871;28;20021;-71
2022/08/04 06:59:53;;;;;;;0.67;0.53;;;;;;;;;;5075094;28;20040;-71
2022/08/04 07:02:28;;;;;;;2.50;0.70;;;;;;;;;;5074927;28;20032;-71
2022/08/04 07:04:55;;;;;;;3.20;1.25;;;;;;;;;;5072264;28;20421;-71
2022/08/04 07:07:24;;;;;;;4.70;1.73;;;;;;;;;;5069724;28;20028;-71
2022/08/04 07:09:51;;;;;;;4.10;1.10;;;;;;;;;;5069586;28;20029;-71
2022/08/04 07:12:20;;;;;;;2.00;0.90;;;;;;;;;;5051255;28;20498;-71
2022/08/04 07:14:47;;;;;;;4.47;1.07;;;;;;;;;;5050895;28;20021;-71
2022/08/04 07:17:16;;;;;;;2.10;1.17;;;;;;;;;;5054647;28;20033;-71
2022/08/04 07:19:45;;;;;;;3.10;1.17;;;;;;;;;;5054644;28;20052;-71
2022/08/04 07:22:12;;;;;;;5.17;1.90;;;;;;;;;;5054493;28;20024;-71
2022/08/04 07:24:39;;;;;;;2.67;1.27;;;;;;;;;;5054388;28;20087;-72
2022/08/04 07:27:06;;;;;;;6.73;1.80;;;;;;;;;;5052774;28;20375;-71
2022/08/04 07:29:34;;;;;;;2.87;1.00;;;;;;;;;;5049097;28;20473;-71
2022/08/04 07:32:01;;;;;;;2.00;1.03;;;;;;;;;;5049129;28;20031;-71
2022/08/04 07:34:29;;;;;;;4.77;1.53;;;;;;;;;;5049128;28;20017;-71
2022/08/04 07:36:57;;;;;;;2.37;1.13;;;;;;;;;;5049774;28;20104;-71
2022/08/04 07:39:25;;;;;;;1.67;1.00;;;;;;;;;;5057894;28;20111;-71
2022/08/04 07:41:53;;;;;;;1.57;1.23;;;;;;;;;;5073850;28;20034;-71
2022/08/04 07:44:20;;;;;;;8.40;1.57;;;;;;;;;;5073963;28;20047;-71
2022/08/04 07:46:47;;;;;;;2.30;1.70;;;;;;;;;;5074079;28;20038;-71
2022/08/04 07:49:14;;;;;;;0.87;0.57;;;;;;;;;;5072709;28;20104;-71
2022/08/04 07:51:41;;;;;;;1.20;0.90;;;;;;;;;;5068649;28;20027;-71
2022/08/04 07:54:09;;;;;;;6.77;1.90;;;;;;;;;;5052165;28;20040;-71
2022/08/04 07:56:37;;;;;;;0.67;0.60;;;;;;;;;;5048880;28;20189;-71
2022/08/04 07:59:05;;;;;;;2.57;1.40;;;;;;;;;;5049442;28;20376;-71
2022/08/04 08:01:32;;;;;;;2.57;1.57;;;;;;;;;;5054039;28;20025;-71
2022/08/04 08:04:00;;;;;;;0.77;0.50;;;;;;;;;;5053969;28;20075;-70
2022/08/04 08:06:28;;;;;;;0.77;0.57;;;;;;;;;;5053362;28;20037;-71
2022/08/04 08:08:59;;;;;;;3.07;1.30;;;;;;;;;;5053323;28;20082;-72
2022/08/04 08:11:26;;;;;;;1.67;0.90;;;;;;;;;;5052328;28;20454;-71
2022/08/04 08:13:53;;;;;;;3.77;1.47;;;;;;;;;;5048360;28;20074;-71
2022/08/04 08:16:22;;;;;;;0.70;0.57;;;;;;;;;;5048359;28;20102;-71
2022/08/04 08:18:49;;;;;;;10.33;1.07;;;;;;;;;;5048289;28;20025;-71
2022/08/04 08:21:15;;;;;;;1.07;0.83;;;;;;;;;;5049988;28;20090;-71
2022/08/04 08:23:42;;;;;;;1.23;0.87;;;;;;;;;;5072634;28;20024;-71
2022/08/04 08:26:09;;;;;;;1.33;0.80;;;;;;;;;;5073617;28;20133;-71
2022/08/04 08:28:36;;;;;;;9.30;2.10;;;;;;;;;;5073517;28;20150;-71
2022/08/04 08:31:03;;;;;;;1.50;0.97;;;;;;;;;;5073292;28;20105;-71
2022/08/04 08:33:30;;;;;;;3.30;1.00;;;;;;;;;;5072421;28;20040;-71
2022/08/04 08:36:03;;;;;;;1.80;0.90;;;;;;;;;;5067929;28;20024;-71
2022/08/04 08:38:36;;;;;;;2.37;1.40;;;;;;;;;;5067296;28;20031;-72
2022/08/04 08:41:21;;;;;;;5.43;1.20;;;;;;;;;;5067875;28;20020;-71
2022/08/04 08:44:06;;;;;;;3.17;1.05;;;;;;;;;;5068711;28;20025;-72
2022/08/04 08:46:51;;;;;;;2.65;1.30;;;;;;;;;;5063019;28;20033;-71
2022/08/04 08:49:21;;;;;;;2.35;1.38;;;;;;;;;;5052907;28;20029;-71
2022/08/04 08:52:06;;;;;;;1.37;1.00;;;;;;;;;;5054059;28;20020;-71
2022/08/04 08:54:39;;;;;;;0.47;0.47;;;;;;;;;;5052699;28;20517;-71
2022/08/04 08:57:24;;;;;;;1.50;0.93;;;;;;;;;;5048489;28;20109;-71
2022/08/04 08:59:57;;;;;;;0.98;0.82;;;;;;;;;;5047488;28;20499;-71
2022/08/04 09:02:42;;;;;;;0.60;0.60;;;;;;;;;;5047214;28;20079;-71
2022/08/04 09:05:27;;;;;;;1.70;1.13;;;;;;;;;;5047254;28;20056;-71
2022/08/04 09:07:54;;;;;;;3.13;1.38;;;;;;;;;;5052372;28;20025;-71
2022/08/04 09:10:25;;;;;;;1.87;1.30;;;;;;;;;;5052645;28;20059;-71
2022/08/04 09:12:51;;;;;;;2.23;1.57;;;;;;;;;;5052430;28;20480;-71
2022/08/04 09:15:22;;;;;;;2.37;1.40;;;;;;;;;;5060334;28;20139;-71
2022/08/04 09:18:15;;;;;;;4.23;1.30;;;;;;;;;;5072399;28;20021;-71
2022/08/04 09:20:49;;;;;;;1.80;1.03;;;;;;;;;;5028639;28;20412;-72
2022/08/04 09:23:16;;;;;;;1.50;1.30;;;;;;;;;;5067068;28;20032;-71
2022/08/04 09:25:47;;;;;;;3.40;2.17;;;;;;;;;;5066608;28;20996;-71
2022/08/04 09:28:19;;;;;;;2.80;2.00;;;;;;;;;;5067722;28;20039;-71
2022/08/04 09:30:55;;;;;;;2.30;1.77;;;;;;;;;;5072177;28;20020;-71
2022/08/04 09:33:34;;;;;;;3.67;1.70;;;;;;;;;;5072255;28;20029;-71
2022/08/04 09:36:05;;;;;;;2.27;1.47;;;;;;;;;;5072341;28;20471;-71
2022/08/04 09:38:41;;;;;;;1.57;1.00;;;;;;;;;;5072282;28;20026;-71
2022/08/04 09:41:21;;;;;;;5.40;1.57;;;;;;;;;;5069512;28;20074;-71
2022/08/04 09:43:57;;;;;;;2.23;1.57;;;;;;;;;;5061111;28;20040;-71
2022/08/04 09:46:26;;;;;;;2.03;1.43;;;;;;;;;;5046678;28;20476;-71
2022/08/04 09:48:58;;;;;;;2.73;1.23;;;;;;;;;;5046655;28;20021;-71
2022/08/04 09:51:36;;;;;;;2.13;1.20;;;;;;;;;;5049452;28;20025;-71
2022/08/04 09:54:09;;;;;;;2.47;1.67;;;;;;;;;;5052200;28;20104;-71
2022/08/04 09:56:41;;;;;;;8.87;2.37;;;;;;;;;;5051967;28;20014;-71
2022/08/04 09:59:17;;;;;;;4.47;2.07;;;;;;;;;;5052126;28;20016;-71
2022/08/04 10:01:44;;;;;;;3.00;1.50;;;;;;;;;;5051958;28;20048;-71
2022/08/04 10:04:13;;;;;;;1.27;1.00;;;;;;;;;;5047437;28;20429;-71
2022/08/04 10:06:48;;;;;;;1.90;1.40;;;;;;;;;;5046571;28;20029;-71
2022/08/04 10:09:22;;;;;;;4.65;1.50;;;;;;;;;;5050478;28;20549;-71
2022/08/04 10:11:53;;;;;;;3.70;1.63;;;;;;;;;;5050709;28;20024;-71
2022/08/04 10:14:39;;;;;;;2.57;1.70;;;;;;;;;;5073728;28;20055;-71
2022/08/04 10:17:09;;;;;;;3.17;2.23;;;;;;;;;;5076002;28;20024;-71
2022/08/04 10:19:38;;;;;;;6.00;1.93;;;;;;;;;;5076103;28;20393;-71
2022/08/04 10:22:14;;;;;;;1.70;0.97;;;;;;;;;;5075747;28;20081;-71
2022/08/04 10:24:40;;;;;;;2.53;1.63;;;;;;;;;;5075079;28;20071;-71
2022/08/04 10:27:21;;;;;;;2.97;1.53;;;;;;;;;;5070236;28;20069;-71
2022/08/04 10:29:48;;;;;;;2.10;1.40;;;;;;;;;;5070217;28;20525;-71
2022/08/04 10:32:20;;;;;;;4.20;2.07;;;;;;;;;;5070290;28;20028;-71
2022/08/04 10:35:05;;;;;;;1.87;1.30;;;;;;;;;;5070283;28;20028;-71
2022/08/04 10:37:52;;;;;;;1.52;1.25;;;;;;;;;;5075635;28;20428;-71
2022/08/04 10:43:42;;;;;;;3.57;1.70;;;;;;;;;;5013390;28;20362;-71
2022/08/04 10:46:21;;;;;;;3.17;1.60;;;;;;;;;;5051058;28;20067;-71
2022/08/04 10:48:58;;;;;;;2.97;1.27;;;;;;;;;;5051194;28;20358;-71
2022/08/04 10:51:28;;;;;;;2.77;1.73;;;;;;;;;;5050056;28;20017;-71
2022/08/04 10:54:02;;;;;;;2.13;1.40;;;;;;;;;;5050013;28;20385;-71
2022/08/04 10:56:32;;;;;;;2.93;1.80;;;;;;;;;;5049665;28;20025;-71
2022/08/04 10:59:06;;;;;;;1.30;1.10;;;;;;;;;;5054130;28;20029;-71
2022/08/04 11:01:37;;;;;;;1.25;1.15;;;;;;;;;;5055159;28;20025;-71
2022/08/04 11:04:22;;;;;;;4.00;2.23;;;;;;;;;;5055009;28;20017;-71
2022/08/04 11:06:49;;;;;;;;;;;;;;;;;;5055032;28;20145;-71
2022/08/04 11:09:17;;;;;;;2.70;1.60;;;;;;;;;;5054897;28;19904;-71
2022/08/04 11:11:51;;;;;;;1.50;1.23;;;;;;;;;;5066902;28;20020;-71
2022/08/04 11:14:24;;;;;;;3.30;1.83;;;;;;;;;;5069330;28;20411;-71
2022/08/04 11:16:53;;;;;;;3.40;1.87;;;;;;;;;;5069448;28;20035;-71
2022/08/04 11:19:30;;;;;;;2.83;1.70;;;;;;;;;;5068362;28;20036;-72
2022/08/04 11:21:59;;;;;;;1.70;1.30;;;;;;;;;;5074913;28;20404;-71
2022/08/04 11:24:40;;;;;;;3.00;1.50;;;;;;;;;;5074525;28;20032;-71
2022/08/04 11:27:11;;;;;;;1.63;1.10;;;;;;;;;;5074571;28;20016;-71
2022/08/04 11:29:41;;;;;;;0.93;0.87;;;;;;;;;;5073972;28;20469;-71
2022/08/04 11:32:17;;;;;;;2.80;1.77;;;;;;;;;;5073215;28;20564;-71
2022/08/04 11:34:46;;;;;;;3.50;1.87;;;;;;;;;;5069156;28;20399;-71
2022/08/04 11:37:17;;;;;;;1.43;0.97;;;;;;;;;;5069201;28;20028;-71
2022/08/04 11:39:56;;;;;;;2.97;1.63;;;;;;;;;;5057846;28;20111;-71
2022/08/04 11:42:27;;;;;;;1.33;1.17;;;;;;;;;;5050625;28;20025;-71
2022/08/04 11:45:04;;;;;;;1.07;0.70;;;;;;;;;;5054206;28;20036;-71
2022/08/04 11:47:40;;;;;;;2.20;0.97;;;;;;;;;;5054034;28;20108;-71
2022/08/04 11:50:07;;;;;;;4.53;1.70;;;;;;;;;;5054321;28;20442;-71
2022/08/04 11:52:35;;;;;;;2.77;1.73;;;;;;;;;;5053944;28;20021;-71
2022/08/04 11:55:07;;;;;;;1.97;1.43;;;;;;;;;;5051259;28;20262;-71
2022/08/04 11:57:33;;;;;;;1.23;0.80;;;;;;;;;;5048790;28;20040;-70
2022/08/04 12:00:01;;;;;;;2.90;1.47;;;;;;;;;;5048498;28;20268;-71
2022/08/04 12:02:43;;;;;;;2.57;1.07;;;;;;;;;;5048778;28;20258;-70
2022/08/04 12:05:10;;;;;;;1.93;1.13;;;;;;;;;;5051255;28;20565;-71
2022/08/04 12:07:49;;;;;;;5.00;2.10;;;;;;;;;;5056580;28;20297;-71
2022/08/04 12:10:19;;;;;;;3.90;1.37;;;;;;;;;;5073763;28;20379;-71
2022/08/04 12:13:04;;;;;;;12.03;3.07;;;;;;;;;;5073596;28;20336;-71
2022/08/04 12:15:35;;;;;;;2.75;1.83;;;;;;;;;;5073593;28;20744;-71
2022/08/04 12:18:21;;;;;;;5.33;1.70;;;;;;;;;;5069158;28;20020;-70
2022/08/04 12:20:49;;;;;;;4.55;2.05;;;;;;;;;;5050318;28;20657;-71
2022/08/04 12:23:26;;;;;;;1.80;1.33;;;;;;;;;;5067675;28;20028;-71
2022/08/04 12:25:58;;;;;;;4.77;2.50;;;;;;;;;;5067907;28;20060;-71
2022/08/04 12:28:31;;;;;;;3.07;1.87;;;;;;;;;;5072956;28;20751;-71
2022/08/04 12:31:02;;;;;;;5.03;1.63;;;;;;;;;;5064736;28;20297;-71
2022/08/04 12:33:35;;;;;;;2.40;2.17;;;;;;;;;;5064562;28;20266;-71
2022/08/04 12:36:01;;;;;;;2.67;1.73;;;;;;;;;;5073173;28;20742;-71
2022/08/04 12:38:32;;;;;;;1.10;1.00;;;;;;;;;;5072607;28;20800;-71
2022/08/04 12:41:02;;;;;;;3.90;2.00;;;;;;;;;;5067845;28;20028;-71
2022/08/04 12:43:40;;;;;;;2.47;1.77;;;;;;;;;;5067798;28;20147;-71
2022/08/04 12:46:09;;;;;;;17.07;3.47;;;;;;;;;;5067533;28;20041;-71
2022/08/04 12:48:37;;;;;;;2.93;2.03;;;;;;;;;;5068033;28;20928;-71
2022/08/04 12:51:07;;;;;;;1.73;1.47;;;;;;;;;;5072973;28;20383;-70
2022/08/04 12:53:39;;;;;;;6.80;2.30;;;;;;;;;;5072934;28;20017;-71
2022/08/04 12:56:07;;;;;;;3.53;2.40;;;;;;;;;;5072690;28;20586;-71
2022/08/04 12:58:37;;;;;;;5.43;2.43;;;;;;;;;;5072492;28;20411;-71
2022/08/04 13:01:08;;;;;;;23.77;2.17;;;;;;;;;;5053443;28;20427;-71
2022/08/04 13:03:50;;;;;;;4.87;2.77;;;;;;;;;;5047324;28;20064;-71
2022/08/04 13:06:16;;;;;;;4.20;2.67;;;;;;;;;;5050182;28;20037;-70
2022/08/04 13:08:45;;;;;;;9.03;2.93;;;;;;;;;;5047281;28;20266;-70
2022/08/04 13:11:12;;;;;;;6.03;3.43;;;;;;;;;;5048045;28;20503;-70
2022/08/04 13:13:39;;;;;;;6.03;2.37;;;;;;;;;;5052492;28;20124;-70
2022/08/04 13:16:07;;;;;;;8.13;2.17;;;;;;;;;;5052576;28;20055;-70
2022/08/04 13:18:44;;;;;;;4.13;2.27;;;;;;;;;;5052532;28;20506;-70
2022/08/04 13:21:14;;;;;;;12.67;2.77;;;;;;;;;;5066568;28;20025;-70
2022/08/04 13:23:44;;;;;;;2.60;1.60;;;;;;;;;;5069916;28;20035;-70
2022/08/04 13:26:12;;;;;;;4.33;2.70;;;;;;;;;;5066970;28;20037;-70
2022/08/04 13:28:40;;;;;;;10.20;3.27;;;;;;;;;;5066957;28;20040;-70
2022/08/04 13:31:07;;;;;;;1.93;1.40;;;;;;;;;;5067048;28;20020;-70
2022/08/04 13:33:36;;;;;;;3.13;1.57;;;;;;;;;;5068351;28;20031;-70
2022/08/04 13:36:04;;;;;;;4.50;2.83;;;;;;;;;;5071418;28;20028;-70
2022/08/04 13:38:31;;;;;;;6.03;3.17;;;;;;;;;;5071185;28;20039;-71
2022/08/04 13:41:00;;;;;;;4.60;2.47;;;;;;;;;;5071814;28;20031;-70
2022/08/04 13:43:29;;;;;;;2.40;1.70;;;;;;;;;;5069221;28;20073;-70
2022/08/04 13:46:03;;;;;;;5.67;3.37;;;;;;;;;;5068081;28;20115;-70
2022/08/04 13:48:40;;;;;;;9.43;3.63;;;;;;;;;;5066476;28;20028;-70
2022/08/04 13:51:07;;;;;;;10.13;3.50;;;;;;;;;;5064534;28;20036;-71
2022/08/04 13:53:35;;;;;;;8.43;2.23;;;;;;;;;;5066545;28;20090;-70
2022/08/04 13:56:03;;;;;;;2.40;1.57;;;;;;;;;;5068326;28;20031;-70
2022/08/04 13:58:49;;;;;;;3.70;1.57;;;;;;;;;;5060886;28;20044;-70
2022/08/04 14:01:19;;;;;;;2.80;1.93;;;;;;;;;;5051281;28;20103;-71
2022/08/04 14:03:57;;;;;;;2.70;1.60;;;;;;;;;;5051800;28;20482;-70
2022/08/04 14:06:25;;;;;;;9.53;2.73;;;;;;;;;;5051906;28;20476;-70
2022/08/04 14:08:54;;;;;;;4.07;2.40;;;;;;;;;;5048553;28;20380;-70
2022/08/04 14:11:37;;;;;;;2.43;1.70;;;;;;;;;;5046625;28;20021;-70
2022/08/04 14:14:17;;;;;;;8.27;2.60;;;;;;;;;;5061581;28;20040;-70
2022/08/04 14:17:00;;;;;;;4.77;2.03;;;;;;;;;;5048336;28;20387;-70
2022/08/04 14:19:27;;;;;;;7.40;2.50;;;;;;;;;;5068543;28;20036;-71
2022/08/04 14:21:54;;;;;;;10.67;2.50;;;;;;;;;;5071602;28;20028;-71
2022/08/04 14:24:25;;;;;;;7.80;2.37;;;;;;;;;;5071750;28;20037;-70
2022/08/04 14:26:52;;;;;;;2.53;1.60;;;;;;;;;;5071699;28;20102;-70
2022/08/04 14:29:19;;;;;;;4.03;2.53;;;;;;;;;;5053796;28;20028;-70
2022/08/04 14:31:49;;;;;;;12.13;3.30;;;;;;;;;;5046702;28;20491;-70
2022/08/04 14:34:26;;;;;;;4.40;2.50;;;;;;;;;;5045887;28;20411;-71
2022/08/04 14:36:53;;;;;;;8.33;2.90;;;;;;;;;;5046185;28;20025;-70
2022/08/04 14:39:36;;;;;;;9.93;2.70;;;;;;;;;;5046063;28;20500;-70
2022/08/04 14:42:03;;;;;;;2.80;2.10;;;;;;;;;;5051501;28;20036;-70
2022/08/04 14:44:30;;;;;;;3.67;1.70;;;;;;;;;;5051102;28;20029;-71
2022/08/04 14:46:58;;;;;;;4.50;2.03;;;;;;;;;;5051621;28;20031;-71
2022/08/04 14:49:28;;;;;;;9.93;2.07;;;;;;;;;;5067215;28;20112;-71
2022/08/04 14:52:00;;;;;;;15.33;3.30;;;;;;;;;;5071415;28;20024;-70
2022/08/04 14:54:33;;;;;;;4.17;1.70;;;;;;;;;;5066809;28;20021;-71
2022/08/04 14:57:04;;;;;;;4.47;2.10;;;;;;;;;;5069502;28;20017;-71
2022/08/04 14:59:44;;;;;;;4.57;2.03;;;;;;;;;;5069520;28;20117;-71
2022/08/04 15:02:11;;;;;;;7.20;2.47;;;;;;;;;;5069890;28;20024;-70
2022/08/04 15:04:39;;;;;;;4.30;1.93;;;;;;;;;;5074847;28;20471;-71
2022/08/04 15:07:06;;;;;;;5.47;2.13;;;;;;;;;;5074486;28;20375;-70
2022/08/04 15:09:33;;;;;;;8.57;2.33;;;;;;;;;;5074403;28;20483;-71
2022/08/04 15:11:59;;;;;;;8.60;2.17;;;;;;;;;;5074741;28;20127;-71
2022/08/04 15:14:27;;;;;;;6.17;2.37;;;;;;;;;;5073995;28;20032;-71
2022/08/04 15:16:53;;;;;;;7.53;2.40;;;;;;;;;;5064882;28;20024;-71
2022/08/04 15:19:20;;;;;;;4.30;2.27;;;;;;;;;;5050441;28;20055;-71